sensor_id;sensor_type;location;lat;lon;timestamp;P1;durP1;ratioP1;P2;durP2;ratioP2
49366;SDS011;35245;52.026;8.540;2023-04-26T00:01:00;10.75;;;3.25;;
49366;SDS011;35245;52.026;8.540;2023-04-26T00:05:57;9.38;;;2.95;;
49366;SDS011;35245;52.026;8.540;2023-04-26T00:08:29;9.35;;;3.78;;
49366;SDS011;35245;52.026;8.540;2023-04-26T00:10:56;8.65;;;2.63;;
49366;SDS011;35245;52.026;8.540;2023-04-26T00:13:23;10.95;;;3.35;;
49366;SDS011;35245;52.026;8.540;2023-04-26T00:15:50;8.13;;;2.83;;
49366;SDS011;35245;52.026;8.540;2023-04-26T00:18:17;13.38;;;3.55;;
49366;SDS011;35245;52.026;8.540;2023-04-26T00:20:43;12.38;;;3.50;;
49366;SDS011;35245;52.026;8.540;2023-04-26T00:23:10;6.78;;;2.85;;
49366;SDS011;35245;52.026;8.540;2023-04-26T00:25:39;11.10;;;3.25;;
49366;SDS011;35245;52.026;8.540;2023-04-26T00:28:06;12.23;;;3.47;;
49366;SDS011;35245;52.026;8.540;2023-04-26T00:30:34;8.48;;;3.00;;
49366;SDS011;35245;52.026;8.540;2023-04-26T00:33:01;9.65;;;2.97;;
49366;SDS011;35245;52.026;8.540;2023-04-26T00:35:28;10.50;;;4.30;;
49366;SDS011;35245;52.026;8.540;2023-04-26T00:37:55;8.63;;;3.22;;
49366;SDS011;35245;52.026;8.540;2023-04-26T00:40:22;7.97;;;3.20;;
49366;SDS011;35245;52.026;8.540;2023-04-26T00:42:55;9.27;;;3.42;;
49366;SDS011;35245;52.026;8.540;2023-04-26T00:45:22;9.43;;;3.60;;
49366;SDS011;35245;52.026;8.540;2023-04-26T00:47:49;10.07;;;2.92;;
49366;SDS011;35245;52.026;8.540;2023-04-26T00:50:16;13.23;;;4.05;;
49366;SDS011;35245;52.026;8.540;2023-04-26T00:52:43;10.55;;;3.70;;
49366;SDS011;35245;52.026;8.540;2023-04-26T00:55:12;7.40;;;3.22;;
49366;SDS011;35245;52.026;8.540;2023-04-26T00:57:40;8.02;;;3.33;;
49366;SDS011;35245;52.026;8.540;2023-04-26T01:00:09;7.88;;;2.92;;
49366;SDS011;35245;52.026;8.540;2023-04-26T01:02:36;14.77;;;3.55;;
49366;SDS011;35245;52.026;8.540;2023-04-26T01:05:03;12.35;;;3.78;;
49366;SDS011;35245;52.026;8.540;2023-04-26T01:07:31;13.23;;;4.05;;
49366;SDS011;35245;52.026;8.540;2023-04-26T01:09:58;9.20;;;3.88;;
49366;SDS011;35245;52.026;8.540;2023-04-26T01:12:25;11.73;;;4.05;;
49366;SDS011;35245;52.026;8.540;2023-04-26T01:14:53;10.15;;;3.97;;
49366;SDS011;35245;52.026;8.540;2023-04-26T01:17:22;13.40;;;3.65;;
49366;SDS011;35245;52.026;8.540;2023-04-26T01:19:50;13.23;;;4.07;;
49366;SDS011;35245;52.026;8.540;2023-04-26T01:22:17;12.73;;;4.22;;
49366;SDS011;35245;52.026;8.540;2023-04-26T01:24:47;11.25;;;3.47;;
49366;SDS011;35245;52.026;8.540;2023-04-26T01:27:15;12.73;;;3.72;;
49366;SDS011;35245;52.026;8.540;2023-04-26T01:29:42;5.72;;;3.03;;
49366;SDS011;35245;52.026;8.540;2023-04-26T01:32:10;10.23;;;4.13;;
49366;SDS011;35245;52.026;8.540;2023-04-26T01:34:37;11.52;;;2.75;;
49366;SDS011;35245;52.026;8.540;2023-04-26T01:37:04;17.23;;;3.95;;
49366;SDS011;35245;52.026;8.540;2023-04-26T01:39:31;7.70;;;3.13;;
49366;SDS011;35245;52.026;8.540;2023-04-26T01:42:00;11.13;;;3.25;;
49366;SDS011;35245;52.026;8.540;2023-04-26T01:44:28;13.15;;;3.47;;
49366;SDS011;35245;52.026;8.540;2023-04-26T01:46:55;8.60;;;3.40;;
49366;SDS011;35245;52.026;8.540;2023-04-26T01:49:22;10.43;;;3.75;;
49366;SDS011;35245;52.026;8.540;2023-04-26T01:51:49;12.00;;;3.95;;
49366;SDS011;35245;52.026;8.540;2023-04-26T01:54:16;12.15;;;2.92;;
49366;SDS011;35245;52.026;8.540;2023-04-26T01:56:43;7.28;;;3.03;;
49366;SDS011;35245;52.026;8.540;2023-04-26T01:59:11;8.20;;;3.47;;
49366;SDS011;35245;52.026;8.540;2023-04-26T02:01:40;11.23;;;4.00;;
49366;SDS011;35245;52.026;8.540;2023-04-26T02:04:07;17.33;;;6.72;;
49366;SDS011;35245;52.026;8.540;2023-04-26T02:06:34;10.13;;;3.63;;
49366;SDS011;35245;52.026;8.540;2023-04-26T02:09:02;9.90;;;3.45;;
49366;SDS011;35245;52.026;8.540;2023-04-26T02:11:29;10.68;;;3.75;;
49366;SDS011;35245;52.026;8.540;2023-04-26T02:13:56;9.07;;;3.35;;
49366;SDS011;35245;52.026;8.540;2023-04-26T02:16:24;15.20;;;3.75;;
49366;SDS011;35245;52.026;8.540;2023-04-26T02:18:51;13.65;;;3.53;;
49366;SDS011;35245;52.026;8.540;2023-04-26T02:21:18;15.10;;;4.00;;
49366;SDS011;35245;52.026;8.540;2023-04-26T02:23:46;14.77;;;4.03;;
49366;SDS011;35245;52.026;8.540;2023-04-26T02:26:13;16.63;;;4.18;;
49366;SDS011;35245;52.026;8.540;2023-04-26T02:28:40;12.68;;;4.15;;
49366;SDS011;35245;52.026;8.540;2023-04-26T02:31:07;17.02;;;3.80;;
49366;SDS011;35245;52.026;8.540;2023-04-26T02:33:35;10.23;;;4.00;;
49366;SDS011;35245;52.026;8.540;2023-04-26T02:36:02;12.98;;;3.70;;
49366;SDS011;35245;52.026;8.540;2023-04-26T02:38:31;12.05;;;3.97;;
49366;SDS011;35245;52.026;8.540;2023-04-26T02:40:58;17.45;;;4.00;;
49366;SDS011;35245;52.026;8.540;2023-04-26T02:43:25;11.55;;;4.00;;
49366;SDS011;35245;52.026;8.540;2023-04-26T02:45:52;17.45;;;5.22;;
49366;SDS011;35245;52.026;8.540;2023-04-26T02:48:19;17.27;;;4.78;;
49366;SDS011;35245;52.026;8.540;2023-04-26T02:50:48;11.23;;;4.10;;
49366;SDS011;35245;52.026;8.540;2023-04-26T02:53:14;13.68;;;3.97;;
49366;SDS011;35245;52.026;8.540;2023-04-26T02:55:42;10.35;;;4.55;;
49366;SDS011;35245;52.026;8.540;2023-04-26T02:58:09;10.75;;;4.53;;
49366;SDS011;35245;52.026;8.540;2023-04-26T03:00:35;14.48;;;4.68;;
49366;SDS011;35245;52.026;8.540;2023-04-26T03:03:02;12.30;;;4.68;;
49366;SDS011;35245;52.026;8.540;2023-04-26T03:05:29;13.57;;;4.63;;
49366;SDS011;35245;52.026;8.540;2023-04-26T03:07:58;11.80;;;5.13;;
49366;SDS011;35245;52.026;8.540;2023-04-26T03:10:25;12.27;;;5.18;;
49366;SDS011;35245;52.026;8.540;2023-04-26T03:12:52;9.95;;;5.43;;
49366;SDS011;35245;52.026;8.540;2023-04-26T03:15:19;13.95;;;5.35;;
49366;SDS011;35245;52.026;8.540;2023-04-26T03:17:45;13.45;;;4.72;;
49366;SDS011;35245;52.026;8.540;2023-04-26T03:20:13;14.23;;;5.35;;
49366;SDS011;35245;52.026;8.540;2023-04-26T03:22:40;15.55;;;5.43;;
49366;SDS011;35245;52.026;8.540;2023-04-26T03:25:08;13.00;;;5.47;;
49366;SDS011;35245;52.026;8.540;2023-04-26T03:27:35;14.60;;;5.35;;
49366;SDS011;35245;52.026;8.540;2023-04-26T03:30:03;12.85;;;5.30;;
49366;SDS011;35245;52.026;8.540;2023-04-26T03:32:30;14.05;;;6.32;;
49366;SDS011;35245;52.026;8.540;2023-04-26T03:34:57;10.35;;;5.22;;
49366;SDS011;35245;52.026;8.540;2023-04-26T03:37:24;14.82;;;4.95;;
49366;SDS011;35245;52.026;8.540;2023-04-26T03:39:51;15.00;;;5.90;;
49366;SDS011;35245;52.026;8.540;2023-04-26T03:42:20;12.20;;;5.18;;
49366;SDS011;35245;52.026;8.540;2023-04-26T03:44:47;14.90;;;5.78;;
49366;SDS011;35245;52.026;8.540;2023-04-26T03:47:14;11.60;;;5.30;;
49366;SDS011;35245;52.026;8.540;2023-04-26T03:49:41;18.50;;;6.53;;
49366;SDS011;35245;52.026;8.540;2023-04-26T03:52:08;13.05;;;6.10;;
49366;SDS011;35245;52.026;8.540;2023-04-26T03:54:35;13.30;;;5.35;;
49366;SDS011;35245;52.026;8.540;2023-04-26T03:57:02;12.45;;;5.22;;
49366;SDS011;35245;52.026;8.540;2023-04-26T03:59:30;14.80;;;5.68;;
49366;SDS011;35245;52.026;8.540;2023-04-26T04:01:57;14.65;;;5.28;;
49366;SDS011;35245;52.026;8.540;2023-04-26T04:04:24;16.45;;;6.43;;
49366;SDS011;35245;52.026;8.540;2023-04-26T04:06:51;17.52;;;5.85;;
49366;SDS011;35245;52.026;8.540;2023-04-26T04:09:18;15.38;;;6.00;;
49366;SDS011;35245;52.026;8.540;2023-04-26T04:11:45;13.75;;;5.18;;
49366;SDS011;35245;52.026;8.540;2023-04-26T04:14:11;15.23;;;4.88;;
49366;SDS011;35245;52.026;8.540;2023-04-26T04:16:40;15.43;;;5.68;;
49366;SDS011;35245;52.026;8.540;2023-04-26T04:19:07;14.70;;;5.78;;
49366;SDS011;35245;52.026;8.540;2023-04-26T04:21:34;15.18;;;5.20;;
49366;SDS011;35245;52.026;8.540;2023-04-26T04:24:01;13.10;;;4.47;;
49366;SDS011;35245;52.026;8.540;2023-04-26T04:26:28;17.10;;;5.13;;
49366;SDS011;35245;52.026;8.540;2023-04-26T04:28:55;13.55;;;5.88;;
49366;SDS011;35245;52.026;8.540;2023-04-26T04:31:24;17.67;;;5.32;;
49366;SDS011;35245;52.026;8.540;2023-04-26T04:33:52;16.83;;;5.57;;
49366;SDS011;35245;52.026;8.540;2023-04-26T04:36:19;14.95;;;5.45;;
49366;SDS011;35245;52.026;8.540;2023-04-26T04:38:46;15.27;;;5.95;;
49366;SDS011;35245;52.026;8.540;2023-04-26T04:41:13;19.80;;;6.80;;
49366;SDS011;35245;52.026;8.540;2023-04-26T04:43:40;17.00;;;6.72;;
49366;SDS011;35245;52.026;8.540;2023-04-26T04:46:07;19.80;;;6.28;;
49366;SDS011;35245;52.026;8.540;2023-04-26T04:48:34;13.55;;;5.85;;
49366;SDS011;35245;52.026;8.540;2023-04-26T04:51:04;12.43;;;6.20;;
49366;SDS011;35245;52.026;8.540;2023-04-26T04:53:32;13.68;;;5.97;;
49366;SDS011;35245;52.026;8.540;2023-04-26T04:55:59;11.57;;;6.65;;
49366;SDS011;35245;52.026;8.540;2023-04-26T04:58:26;12.48;;;6.20;;
49366;SDS011;35245;52.026;8.540;2023-04-26T05:00:53;15.40;;;7.93;;
49366;SDS011;35245;52.026;8.540;2023-04-26T05:03:20;17.92;;;7.60;;
49366;SDS011;35245;52.026;8.540;2023-04-26T05:05:47;19.00;;;7.38;;
49366;SDS011;35245;52.026;8.540;2023-04-26T05:08:16;16.88;;;8.02;;
49366;SDS011;35245;52.026;8.540;2023-04-26T05:10:44;17.73;;;8.30;;
49366;SDS011;35245;52.026;8.540;2023-04-26T05:13:11;14.02;;;6.97;;
49366;SDS011;35245;52.026;8.540;2023-04-26T05:15:37;25.27;;;7.45;;
49366;SDS011;35245;52.026;8.540;2023-04-26T05:18:04;14.60;;;7.22;;
49366;SDS011;35245;52.026;8.540;2023-04-26T05:20:31;16.20;;;7.38;;
49366;SDS011;35245;52.026;8.540;2023-04-26T05:22:58;15.88;;;7.00;;
49366;SDS011;35245;52.026;8.540;2023-04-26T05:25:27;14.00;;;7.00;;
49366;SDS011;35245;52.026;8.540;2023-04-26T05:27:53;15.77;;;6.65;;
49366;SDS011;35245;52.026;8.540;2023-04-26T05:30:20;22.80;;;7.88;;
49366;SDS011;35245;52.026;8.540;2023-04-26T05:32:47;19.77;;;7.22;;
49366;SDS011;35245;52.026;8.540;2023-04-26T05:35:15;18.25;;;7.22;;
49366;SDS011;35245;52.026;8.540;2023-04-26T05:37:42;20.08;;;7.15;;
49366;SDS011;35245;52.026;8.540;2023-04-26T05:40:10;15.27;;;6.65;;
49366;SDS011;35245;52.026;8.540;2023-04-26T05:42:38;19.95;;;7.00;;
49366;SDS011;35245;52.026;8.540;2023-04-26T05:45:06;14.07;;;6.70;;
49366;SDS011;35245;52.026;8.540;2023-04-26T05:47:34;15.93;;;7.40;;
49366;SDS011;35245;52.026;8.540;2023-04-26T05:50:01;21.02;;;7.15;;
49366;SDS011;35245;52.026;8.540;2023-04-26T05:52:28;17.17;;;6.90;;
49366;SDS011;35245;52.026;8.540;2023-04-26T05:54:55;24.58;;;7.15;;
49366;SDS011;35245;52.026;8.540;2023-04-26T05:57:22;14.77;;;6.63;;
49366;SDS011;35245;52.026;8.540;2023-04-26T05:59:50;18.65;;;6.72;;
49366;SDS011;35245;52.026;8.540;2023-04-26T06:02:17;18.00;;;6.78;;
49366;SDS011;35245;52.026;8.540;2023-04-26T06:04:44;17.55;;;6.63;;
49366;SDS011;35245;52.026;8.540;2023-04-26T06:07:11;15.80;;;7.25;;
49366;SDS011;35245;52.026;8.540;2023-04-26T06:09:38;18.30;;;6.18;;
49366;SDS011;35245;52.026;8.540;2023-04-26T06:12:05;19.23;;;6.80;;
49366;SDS011;35245;52.026;8.540;2023-04-26T06:14:32;19.60;;;6.88;;
49366;SDS011;35245;52.026;8.540;2023-04-26T06:17:00;15.20;;;5.82;;
49366;SDS011;35245;52.026;8.540;2023-04-26T06:19:27;14.95;;;5.20;;
49366;SDS011;35245;52.026;8.540;2023-04-26T06:21:54;11.38;;;5.25;;
49366;SDS011;35245;52.026;8.540;2023-04-26T06:24:21;19.65;;;4.40;;
49366;SDS011;35245;52.026;8.540;2023-04-26T06:26:48;15.45;;;5.22;;
49366;SDS011;35245;52.026;8.540;2023-04-26T06:29:15;13.48;;;5.63;;
49366;SDS011;35245;52.026;8.540;2023-04-26T06:31:42;14.60;;;6.00;;
49366;SDS011;35245;52.026;8.540;2023-04-26T06:34:11;14.07;;;5.30;;
49366;SDS011;35245;52.026;8.540;2023-04-26T06:36:37;11.90;;;5.28;;
49366;SDS011;35245;52.026;8.540;2023-04-26T06:39:04;12.48;;;6.28;;
49366;SDS011;35245;52.026;8.540;2023-04-26T06:41:32;15.02;;;6.35;;
49366;SDS011;35245;52.026;8.540;2023-04-26T06:43:58;16.83;;;5.70;;
49366;SDS011;35245;52.026;8.540;2023-04-26T06:46:25;13.90;;;5.97;;
49366;SDS011;35245;52.026;8.540;2023-04-26T06:48:52;11.35;;;5.88;;
49366;SDS011;35245;52.026;8.540;2023-04-26T06:51:21;14.93;;;5.82;;
49366;SDS011;35245;52.026;8.540;2023-04-26T06:53:48;17.73;;;6.70;;
49366;SDS011;35245;52.026;8.540;2023-04-26T06:56:16;17.20;;;6.60;;
49366;SDS011;35245;52.026;8.540;2023-04-26T06:58:56;10.65;;;4.72;;
49366;SDS011;35245;52.026;8.540;2023-04-26T07:01:24;12.13;;;4.22;;
49366;SDS011;35245;52.026;8.540;2023-04-26T07:03:53;12.23;;;5.93;;
49366;SDS011;35245;52.026;8.540;2023-04-26T07:06:21;13.80;;;5.35;;
49366;SDS011;35245;52.026;8.540;2023-04-26T07:08:49;14.00;;;4.65;;
49366;SDS011;35245;52.026;8.540;2023-04-26T07:11:16;10.95;;;4.00;;
49366;SDS011;35245;52.026;8.540;2023-04-26T07:13:43;10.63;;;3.78;;
49366;SDS011;35245;52.026;8.540;2023-04-26T07:16:10;14.38;;;4.30;;
49366;SDS011;35245;52.026;8.540;2023-04-26T07:18:37;12.68;;;4.22;;
49366;SDS011;35245;52.026;8.540;2023-04-26T07:21:04;8.13;;;3.70;;
49366;SDS011;35245;52.026;8.540;2023-04-26T07:23:33;9.95;;;4.05;;
49366;SDS011;35245;52.026;8.540;2023-04-26T07:26:01;17.15;;;5.18;;
49366;SDS011;35245;52.026;8.540;2023-04-26T07:28:28;14.82;;;4.38;;
49366;SDS011;35245;52.026;8.540;2023-04-26T07:30:55;12.23;;;3.90;;
49366;SDS011;35245;52.026;8.540;2023-04-26T07:33:22;11.95;;;3.70;;
49366;SDS011;35245;52.026;8.540;2023-04-26T07:35:52;9.30;;;3.70;;
49366;SDS011;35245;52.026;8.540;2023-04-26T07:38:20;8.65;;;3.55;;
49366;SDS011;35245;52.026;8.540;2023-04-26T07:40:48;12.82;;;3.83;;
49366;SDS011;35245;52.026;8.540;2023-04-26T07:43:16;10.20;;;3.80;;
49366;SDS011;35245;52.026;8.540;2023-04-26T07:45:43;9.55;;;4.00;;
49366;SDS011;35245;52.026;8.540;2023-04-26T07:48:10;18.55;;;3.78;;
49366;SDS011;35245;52.026;8.540;2023-04-26T07:50:37;9.90;;;3.53;;
49366;SDS011;35245;52.026;8.540;2023-04-26T07:53:04;13.25;;;4.50;;
49366;SDS011;35245;52.026;8.540;2023-04-26T07:55:31;11.27;;;4.35;;
49366;SDS011;35245;52.026;8.540;2023-04-26T07:57:59;7.13;;;3.30;;
49366;SDS011;35245;52.026;8.540;2023-04-26T08:00:26;11.60;;;3.95;;
49366;SDS011;35245;52.026;8.540;2023-04-26T08:02:53;9.80;;;4.13;;
49366;SDS011;35245;52.026;8.540;2023-04-26T08:05:20;11.00;;;3.15;;
49366;SDS011;35245;52.026;8.540;2023-04-26T08:07:47;9.77;;;3.45;;
49366;SDS011;35245;52.026;8.540;2023-04-26T08:10:14;10.23;;;3.42;;
49366;SDS011;35245;52.026;8.540;2023-04-26T08:12:41;10.77;;;3.40;;
49366;SDS011;35245;52.026;8.540;2023-04-26T08:15:10;5.30;;;2.78;;
49366;SDS011;35245;52.026;8.540;2023-04-26T08:17:37;7.65;;;3.17;;
49366;SDS011;35245;52.026;8.540;2023-04-26T08:20:06;10.90;;;3.10;;
49366;SDS011;35245;52.026;8.540;2023-04-26T08:22:34;8.25;;;2.50;;
49366;SDS011;35245;52.026;8.540;2023-04-26T08:25:01;13.27;;;3.05;;
49366;SDS011;35245;52.026;8.540;2023-04-26T08:27:29;8.20;;;3.15;;
49366;SDS011;35245;52.026;8.540;2023-04-26T08:29:58;9.65;;;2.90;;
49366;SDS011;35245;52.026;8.540;2023-04-26T08:32:26;8.43;;;2.83;;
49366;SDS011;35245;52.026;8.540;2023-04-26T08:34:53;14.38;;;5.03;;
49366;SDS011;35245;52.026;8.540;2023-04-26T08:37:20;7.57;;;2.90;;
49366;SDS011;35245;52.026;8.540;2023-04-26T08:39:47;8.70;;;2.80;;
49366;SDS011;35245;52.026;8.540;2023-04-26T08:42:14;8.50;;;2.10;;
49366;SDS011;35245;52.026;8.540;2023-04-26T08:44:43;5.72;;;2.50;;
49366;SDS011;35245;52.026;8.540;2023-04-26T08:47:12;10.85;;;2.75;;
49366;SDS011;35245;52.026;8.540;2023-04-26T08:49:43;8.13;;;2.60;;
49366;SDS011;35245;52.026;8.540;2023-04-26T08:52:14;10.60;;;2.55;;
49366;SDS011;35245;52.026;8.540;2023-04-26T08:54:46;7.78;;;2.40;;
49366;SDS011;35245;52.026;8.540;2023-04-26T08:57:15;6.55;;;2.20;;
49366;SDS011;35245;52.026;8.540;2023-04-26T08:59:43;10.32;;;3.20;;
49366;SDS011;35245;52.026;8.540;2023-04-26T09:02:10;11.07;;;2.70;;
49366;SDS011;35245;52.026;8.540;2023-04-26T09:04:43;8.85;;;2.53;;
49366;SDS011;35245;52.026;8.540;2023-04-26T09:07:12;7.03;;;2.00;;
49366;SDS011;35245;52.026;8.540;2023-04-26T09:09:44;5.80;;;1.98;;
49366;SDS011;35245;52.026;8.540;2023-04-26T09:12:14;6.88;;;2.05;;
49366;SDS011;35245;52.026;8.540;2023-04-26T09:14:43;6.18;;;1.90;;
49366;SDS011;35245;52.026;8.540;2023-04-26T09:17:26;9.85;;;2.15;;
49366;SDS011;35245;52.026;8.540;2023-04-26T09:19:55;6.40;;;1.88;;
49366;SDS011;35245;52.026;8.540;2023-04-26T09:22:29;8.90;;;2.45;;
49366;SDS011;35245;52.026;8.540;2023-04-26T09:24:57;6.28;;;1.70;;
49366;SDS011;35245;52.026;8.540;2023-04-26T09:27:31;4.05;;;1.60;;
49366;SDS011;35245;52.026;8.540;2023-04-26T09:30:01;4.88;;;2.05;;
49366;SDS011;35245;52.026;8.540;2023-04-26T09:32:42;6.85;;;2.22;;
49366;SDS011;35245;52.026;8.540;2023-04-26T09:35:24;9.02;;;2.83;;
49366;SDS011;35245;52.026;8.540;2023-04-26T09:37:53;9.98;;;2.65;;
49366;SDS011;35245;52.026;8.540;2023-04-26T09:40:20;7.03;;;2.58;;
49366;SDS011;35245;52.026;8.540;2023-04-26T09:42:55;7.78;;;2.72;;
49366;SDS011;35245;52.026;8.540;2023-04-26T09:45:25;6.32;;;2.33;;
49366;SDS011;35245;52.026;8.540;2023-04-26T09:47:53;7.00;;;2.30;;
49366;SDS011;35245;52.026;8.540;2023-04-26T09:50:28;8.18;;;2.47;;
49366;SDS011;35245;52.026;8.540;2023-04-26T09:52:55;4.80;;;2.33;;
49366;SDS011;35245;52.026;8.540;2023-04-26T09:55:26;5.82;;;2.85;;
49366;SDS011;35245;52.026;8.540;2023-04-26T09:57:54;6.63;;;2.45;;
49366;SDS011;35245;52.026;8.540;2023-04-26T10:00:22;6.47;;;2.72;;
49366;SDS011;35245;52.026;8.540;2023-04-26T10:02:51;8.32;;;2.72;;
49366;SDS011;35245;52.026;8.540;2023-04-26T10:05:18;10.45;;;3.35;;
49366;SDS011;35245;52.026;8.540;2023-04-26T10:07:47;8.98;;;2.80;;
49366;SDS011;35245;52.026;8.540;2023-04-26T10:10:16;8.95;;;2.65;;
49366;SDS011;35245;52.026;8.540;2023-04-26T10:12:44;8.25;;;2.78;;
49366;SDS011;35245;52.026;8.540;2023-04-26T10:15:11;8.13;;;2.90;;
49366;SDS011;35245;52.026;8.540;2023-04-26T10:17:38;8.38;;;4.05;;
49366;SDS011;35245;52.026;8.540;2023-04-26T10:20:07;9.27;;;2.88;;
49366;SDS011;35245;52.026;8.540;2023-04-26T10:22:38;7.90;;;2.83;;
49366;SDS011;35245;52.026;8.540;2023-04-26T10:25:10;9.05;;;3.08;;
49366;SDS011;35245;52.026;8.540;2023-04-26T10:27:49;15.07;;;2.88;;
49366;SDS011;35245;52.026;8.540;2023-04-26T10:30:18;12.00;;;2.35;;
49366;SDS011;35245;52.026;8.540;2023-04-26T10:36:00;7.75;;;2.50;;
49366;SDS011;35245;52.026;8.540;2023-04-26T10:38:35;9.57;;;2.88;;
49366;SDS011;35245;52.026;8.540;2023-04-26T10:43:58;6.57;;;2.10;;
49366;SDS011;35245;52.026;8.540;2023-04-26T10:46:33;8.48;;;2.10;;
49366;SDS011;35245;52.026;8.540;2023-04-26T10:49:14;4.95;;;2.45;;
49366;SDS011;35245;52.026;8.540;2023-04-26T10:54:45;8.88;;;2.72;;
49366;SDS011;35245;52.026;8.540;2023-04-26T10:57:17;6.15;;;2.08;;
49366;SDS011;35245;52.026;8.540;2023-04-26T11:02:57;10.60;;;2.92;;
49366;SDS011;35245;52.026;8.540;2023-04-26T11:05:32;9.45;;;2.67;;
49366;SDS011;35245;52.026;8.540;2023-04-26T11:08:05;4.07;;;1.95;;
49366;SDS011;35245;52.026;8.540;2023-04-26T11:10:36;6.10;;;2.53;;
49366;SDS011;35245;52.026;8.540;2023-04-26T11:13:05;5.68;;;2.75;;
49366;SDS011;35245;52.026;8.540;2023-04-26T11:15:32;8.07;;;2.90;;
49366;SDS011;35245;52.026;8.540;2023-04-26T11:18:00;7.60;;;2.80;;
49366;SDS011;35245;52.026;8.540;2023-04-26T11:20:28;6.78;;;2.10;;
49366;SDS011;35245;52.026;8.540;2023-04-26T11:22:56;8.35;;;3.17;;
49366;SDS011;35245;52.026;8.540;2023-04-26T11:25:24;8.70;;;3.17;;
49366;SDS011;35245;52.026;8.540;2023-04-26T11:27:55;7.40;;;2.70;;
49366;SDS011;35245;52.026;8.540;2023-04-26T11:30:28;5.00;;;2.03;;
49366;SDS011;35245;52.026;8.540;2023-04-26T11:32:56;6.63;;;2.47;;
49366;SDS011;35245;52.026;8.540;2023-04-26T11:35:23;9.25;;;3.42;;
49366;SDS011;35245;52.026;8.540;2023-04-26T11:37:51;6.82;;;2.75;;
49366;SDS011;35245;52.026;8.540;2023-04-26T11:40:18;6.43;;;3.30;;
49366;SDS011;35245;52.026;8.540;2023-04-26T11:42:45;7.43;;;3.40;;
49366;SDS011;35245;52.026;8.540;2023-04-26T11:45:16;7.47;;;2.28;;
49366;SDS011;35245;52.026;8.540;2023-04-26T11:47:44;6.68;;;3.22;;
49366;SDS011;35245;52.026;8.540;2023-04-26T11:50:12;5.30;;;2.55;;
49366;SDS011;35245;52.026;8.540;2023-04-26T11:52:39;8.20;;;2.80;;
49366;SDS011;35245;52.026;8.540;2023-04-26T11:55:07;8.13;;;2.70;;
49366;SDS011;35245;52.026;8.540;2023-04-26T11:57:35;6.15;;;2.90;;
49366;SDS011;35245;52.026;8.540;2023-04-26T12:00:06;7.05;;;3.40;;
49366;SDS011;35245;52.026;8.540;2023-04-26T12:02:38;6.53;;;2.53;;
49366;SDS011;35245;52.026;8.540;2023-04-26T12:05:08;5.22;;;2.65;;
49366;SDS011;35245;52.026;8.540;2023-04-26T12:07:35;6.13;;;3.00;;
49366;SDS011;35245;52.026;8.540;2023-04-26T12:10:15;8.73;;;2.50;;
49366;SDS011;35245;52.026;8.540;2023-04-26T12:12:43;5.93;;;2.65;;
49366;SDS011;35245;52.026;8.540;2023-04-26T12:15:13;6.80;;;2.90;;
49366;SDS011;35245;52.026;8.540;2023-04-26T12:17:40;6.10;;;2.90;;
49366;SDS011;35245;52.026;8.540;2023-04-26T12:20:24;8.13;;;3.00;;
49366;SDS011;35245;52.026;8.540;2023-04-26T12:22:56;9.30;;;2.70;;
49366;SDS011;35245;52.026;8.540;2023-04-26T12:25:27;5.53;;;2.55;;
49366;SDS011;35245;52.026;8.540;2023-04-26T12:27:54;6.70;;;2.70;;
49366;SDS011;35245;52.026;8.540;2023-04-26T12:30:21;6.90;;;2.08;;
49366;SDS011;35245;52.026;8.540;2023-04-26T12:32:48;5.75;;;2.10;;
49366;SDS011;35245;52.026;8.540;2023-04-26T12:35:15;8.20;;;2.45;;
49366;SDS011;35245;52.026;8.540;2023-04-26T12:37:44;4.90;;;2.45;;
49366;SDS011;35245;52.026;8.540;2023-04-26T12:40:12;5.13;;;2.38;;
49366;SDS011;35245;52.026;8.540;2023-04-26T12:42:40;5.68;;;2.40;;
49366;SDS011;35245;52.026;8.540;2023-04-26T12:45:07;6.22;;;2.55;;
49366;SDS011;35245;52.026;8.540;2023-04-26T12:47:35;5.68;;;2.47;;
49366;SDS011;35245;52.026;8.540;2023-04-26T12:50:02;6.72;;;2.67;;
49366;SDS011;35245;52.026;8.540;2023-04-26T12:52:29;12.57;;;5.22;;
49366;SDS011;35245;52.026;8.540;2023-04-26T12:54:58;5.53;;;2.70;;
49366;SDS011;35245;52.026;8.540;2023-04-26T12:57:25;8.88;;;3.20;;
49366;SDS011;35245;52.026;8.540;2023-04-26T12:59:53;7.32;;;3.10;;
49366;SDS011;35245;52.026;8.540;2023-04-26T13:02:20;6.63;;;3.20;;
49366;SDS011;35245;52.026;8.540;2023-04-26T13:04:48;9.60;;;2.95;;
49366;SDS011;35245;52.026;8.540;2023-04-26T13:07:15;7.80;;;3.50;;
49366;SDS011;35245;52.026;8.540;2023-04-26T13:09:42;6.28;;;2.92;;
49366;SDS011;35245;52.026;8.540;2023-04-26T13:12:10;6.13;;;2.53;;
49366;SDS011;35245;52.026;8.540;2023-04-26T13:14:38;6.35;;;3.45;;
49366;SDS011;35245;52.026;8.540;2023-04-26T13:17:05;9.13;;;3.00;;
49366;SDS011;35245;52.026;8.540;2023-04-26T13:19:33;7.13;;;2.70;;
49366;SDS011;35245;52.026;8.540;2023-04-26T13:22:01;6.88;;;2.42;;
49366;SDS011;35245;52.026;8.540;2023-04-26T13:24:28;7.13;;;2.80;;
49366;SDS011;35245;52.026;8.540;2023-04-26T13:26:55;11.35;;;2.40;;
49366;SDS011;35245;52.026;8.540;2023-04-26T13:29:25;6.05;;;2.78;;
49366;SDS011;35245;52.026;8.540;2023-04-26T13:31:52;8.48;;;2.83;;
49366;SDS011;35245;52.026;8.540;2023-04-26T13:34:19;5.75;;;2.83;;
49366;SDS011;35245;52.026;8.540;2023-04-26T13:36:46;7.63;;;2.83;;
49366;SDS011;35245;52.026;8.540;2023-04-26T13:39:13;5.53;;;2.83;;
49366;SDS011;35245;52.026;8.540;2023-04-26T13:41:40;7.20;;;2.22;;
49366;SDS011;35245;52.026;8.540;2023-04-26T13:44:07;6.55;;;2.45;;
49366;SDS011;35245;52.026;8.540;2023-04-26T13:46:35;4.88;;;2.30;;
49366;SDS011;35245;52.026;8.540;2023-04-26T13:49:02;6.57;;;2.42;;
49366;SDS011;35245;52.026;8.540;2023-04-26T13:51:31;6.75;;;2.17;;
49366;SDS011;35245;52.026;8.540;2023-04-26T13:53:58;4.93;;;1.60;;
49366;SDS011;35245;52.026;8.540;2023-04-26T13:56:25;6.68;;;2.40;;
49366;SDS011;35245;52.026;8.540;2023-04-26T13:58:53;5.55;;;2.35;;
49366;SDS011;35245;52.026;8.540;2023-04-26T14:01:21;5.07;;;2.33;;
49366;SDS011;35245;52.026;8.540;2023-04-26T14:03:49;4.72;;;2.15;;
49366;SDS011;35245;52.026;8.540;2023-04-26T14:06:16;5.78;;;2.38;;
49366;SDS011;35245;52.026;8.540;2023-04-26T14:08:43;4.22;;;2.10;;
49366;SDS011;35245;52.026;8.540;2023-04-26T14:11:10;2.90;;;1.70;;
49366;SDS011;35245;52.026;8.540;2023-04-26T14:13:38;7.65;;;2.63;;
49366;SDS011;35245;52.026;8.540;2023-04-26T14:16:05;6.10;;;2.88;;
49366;SDS011;35245;52.026;8.540;2023-04-26T14:18:32;4.40;;;2.63;;
49366;SDS011;35245;52.026;8.540;2023-04-26T14:21:00;7.07;;;2.28;;
49366;SDS011;35245;52.026;8.540;2023-04-26T14:23:28;4.65;;;2.90;;
49366;SDS011;35245;52.026;8.540;2023-04-26T14:25:55;5.53;;;2.33;;
49366;SDS011;35245;52.026;8.540;2023-04-26T14:28:22;5.28;;;2.45;;
49366;SDS011;35245;52.026;8.540;2023-04-26T14:30:50;4.72;;;2.80;;
49366;SDS011;35245;52.026;8.540;2023-04-26T14:33:17;3.95;;;2.67;;
49366;SDS011;35245;52.026;8.540;2023-04-26T14:35:44;4.32;;;2.05;;
49366;SDS011;35245;52.026;8.540;2023-04-26T14:38:13;6.05;;;2.80;;
49366;SDS011;35245;52.026;8.540;2023-04-26T14:40:40;5.95;;;2.63;;
49366;SDS011;35245;52.026;8.540;2023-04-26T14:43:09;7.88;;;3.03;;
49366;SDS011;35245;52.026;8.540;2023-04-26T14:45:35;5.90;;;2.70;;
49366;SDS011;35245;52.026;8.540;2023-04-26T14:48:03;6.20;;;2.60;;
49366;SDS011;35245;52.026;8.540;2023-04-26T14:50:30;6.53;;;2.90;;
49366;SDS011;35245;52.026;8.540;2023-04-26T14:52:57;4.95;;;2.20;;
49366;SDS011;35245;52.026;8.540;2023-04-26T14:55:25;8.15;;;2.80;;
49366;SDS011;35245;52.026;8.540;2023-04-26T14:57:52;5.43;;;2.83;;
49366;SDS011;35245;52.026;8.540;2023-04-26T15:00:19;6.28;;;2.90;;